This is the latest recevied weather packets stored in our database for station/object DG8SF-13. If no packets are shown the sender has not sent any weather packets the latest 10 day(s).
| Time | Temp. | Humidity | Pressure | Rain* | Wind** | Luminosity | Snow |
|---|---|---|---|---|---|---|---|
| 1787416675 | 21.67° C | 49% | 1019.5 hPa | 0 mm | - | - | - |
| 1787416350 | 21.11° C | 49% | 1019.3 hPa | 0 mm | - | - | - |
| 1787416040 | 21.67° C | 48% | 1019.3 hPa | 0 mm | - | - | - |
| 1787415725 | 20° C | 54% | 1019.4 hPa | 0 mm | - | - | - |
| 1787415415 | 20° C | 52% | 1019.4 hPa | 0 mm | - | - | - |
| 1787415102 | 21.67° C | 50% | 1019.4 hPa | 0 mm | - | - | - |
| 1787414790 | 21.67° C | 50% | 1019.3 hPa | 0 mm | - | - | - |
| 1787414477 | 21.11° C | 49% | 1019.2 hPa | 0 mm | - | - | - |
| 1787414165 | 21.67° C | 50% | 1019.2 hPa | 0 mm | - | - | - |
| 1787413855 | 21.67° C | 51% | 1019.1 hPa | 0 mm | - | - | - |
| 1787413542 | 21.67° C | 49% | 1019.2 hPa | 0 mm | - | - | - |
| 1787413234 | 23.33° C | 45% | 1019.2 hPa | 0 mm | - | - | - |
| 1787412881 | 22.22° C | 46% | 1019.1 hPa | 0 mm | - | - | - |
| 1787412572 | 21.67° C | 50% | 1019.2 hPa | 0 mm | - | - | - |
| 1787412257 | 22.22° C | 47% | 1019.2 hPa | 0 mm | - | - | - |
| 1787411935 | 21.67° C | 48% | 1019.2 hPa | 0 mm | - | - | - |
| 1787411610 | 21.67° C | 49% | 1019.1 hPa | 0 mm | - | - | - |
| 1787411299 | 22.22° C | 49% | 1019 hPa | 0 mm | - | - | - |
| 1787410973 | 21.67° C | 49% | 1019 hPa | 0 mm | - | - | - |
| 1787410661 | 21.67° C | 50% | 1019 hPa | 0 mm | - | - | - |
| 1787410351 | 21.11° C | 51% | 1019.1 hPa | 0 mm | - | - | - |
| 1787410026 | 21.67° C | 49% | 1018.9 hPa | 0 mm | - | - | - |
| 1787409714 | 22.78° C | 47% | 1018.9 hPa | 0 mm | - | - | - |
| 1787409402 | 21.67° C | 50% | 1019 hPa | 0 mm | - | - | - |
| 1787409078 | 21.67° C | 49% | 1019.1 hPa | 0 mm | - | - | - |
* Rain latest hour (hover to see other rain measurements)
** Current wind speed in m/s (hover to see current wind gust speed)